Time;durP1;ratioP1;P1;durP2;ratioP2;P2;SDS_P1;SDS_P2;PMS_P1;PMS_P2;Temp;Humidity;BMP_temperature;BMP_pressure;BME280_temperature;BME280_humidity;BME280_pressure;Samples;Min_cycle;Max_cycle;Signal;HPM_P1;HPM_P2
2022/11/18 00:01:05;;;;;;;;;;;;;;;7.79;90.27;99439.94;5045806;28;19964;-56
2022/11/18 00:03:30;;;;;;;;;;;;;;;7.79;90.49;99445.22;5052178;28;19916;-55
2022/11/18 00:05:56;;;;;;;;;;;;;;;7.79;90.68;99445.22;5053351;28;20026;-56
2022/11/18 00:08:21;;;;;;;;;;;;;;;7.78;90.53;99441.75;5049589;28;20382;-53
2022/11/18 00:10:47;;;;;;;;;;;;;;;7.77;90.76;99440.13;5050372;28;20020;-52
2022/11/18 00:16:03;;;;;;;;;;;;;;;7.76;90.65;99443.78;5051857;28;19928;-58
2022/11/18 00:18:28;;;;;;;;;;;;;;;7.76;90.28;99458.81;5055863;28;19919;-54
2022/11/18 00:20:54;;;;;;;;;;;;;;;7.74;90.57;99460.81;5050681;28;20287;-54
2022/11/18 00:23:19;;;;;;;;;;;;;;;7.74;90.53;99460.81;5057929;28;19913;-56
2022/11/18 00:25:44;;;;;;;;;;;;;;;7.75;90.16;99465.09;5050799;28;19913;-56
2022/11/18 00:28:09;;;;;;;;;;;;;;;7.74;90.06;99464.28;5047291;28;19921;-58
2022/11/18 00:30:34;;;;;;;;;;;;;;;7.74;90.12;99463.47;5040762;28;19917;-55
2022/11/18 00:32:59;;;;;;;;;;;;;;;7.74;89.87;99474.03;5050331;28;19970;-56
2022/11/18 00:35:25;;;;;;;;;;;;;;;7.74;89.79;99481.97;5049370;28;19917;-56
2022/11/18 00:37:50;;;;;;;;;;;;;;;7.72;90.00;99471.59;5050444;28;19971;-57
2022/11/18 00:40:15;;;;;;;;;;;;;;;7.73;90.04;99485.63;5048626;28;20007;-56
2022/11/18 00:42:50;;;;;;;;;;;;;;;7.72;89.60;99479.50;5045029;28;20281;-56
2022/11/18 00:45:15;;;;;;;;;;;;;;;7.72;90.02;99483.97;5048305;28;19916;-56
2022/11/18 00:47:40;;;;;;;;;;;;;;;7.71;89.67;99483.16;5045110;28;19963;-56
2022/11/18 00:50:05;;;;;;;;;;;;;;;7.70;89.92;99486.81;5047852;28;19927;-56
2022/11/18 00:52:30;;;;;;;;;;;;;;;7.71;89.49;99493.72;5049792;28;19925;-57
2022/11/18 00:54:56;;;;;;;;;;;;;;;7.71;89.87;99492.91;5048329;28;19978;-56
2022/11/18 00:57:21;;;;;;;;;;;;;;;7.70;89.95;99505.31;5048797;28;19927;-55
2022/11/18 00:59:46;;;;;;;;;;;;;;;7.69;89.84;99501.03;5048626;28;20308;-58
2022/11/18 01:02:11;;;;;;;;;;;;;;;7.69;89.67;99503.66;5044360;28;20007;-56
2022/11/18 01:04:36;;;;;;;;;;;;;;;7.71;89.87;99509.59;5042983;28;20015;-58
2022/11/18 01:07:01;;;;;;;;;;;;;;;7.72;89.65;99513.03;5046262;28;20289;-58
2022/11/18 01:09:27;;;;;;;;;;;;;;;7.73;89.90;99517.31;5046965;28;19956;-57
2022/11/18 01:14:36;;;;;;;;;;;;;;;7.74;89.72;99518.97;5039636;28;19927;-56
2022/11/18 01:17:01;;;;;;;;;;;;;;;7.74;90.00;99522.44;5043605;28;19917;-57
2022/11/18 01:19:26;;;;;;;;;;;;;;;7.75;90.16;99524.06;5055952;28;19932;-55
2022/11/18 01:21:51;;;;;;;;;;;;;;;7.76;89.93;99530.97;5051341;28;19924;-55
2022/11/18 01:24:17;;;;;;;;;;;;;;;7.79;90.06;99529.78;5045607;28;19917;-57
2022/11/18 01:26:42;;;;;;;;;;;;;;;7.80;89.87;99534.06;5045784;28;19989;-56
2022/11/18 01:29:07;;;;;;;;;;;;;;;7.80;89.72;99536.72;5047677;28;19946;-57
2022/11/18 01:31:32;;;;;;;;;;;;;;;7.81;90.05;99535.75;5048593;28;19962;-53
2022/11/18 01:33:58;;;;;;;;;;;;;;;7.83;89.78;99541.66;5043790;28;19919;-56
2022/11/18 01:36:24;;;;;;;;;;;;;;;7.84;89.79;99545.94;5045636;28;20277;-56
2022/11/18 01:38:50;;;;;;;;;;;;;;;7.85;89.68;99552.03;5049214;28;19920;-56
2022/11/18 01:41:15;;;;;;;;;;;;;;;7.86;89.78;99549.22;5048739;28;20514;-57
2022/11/18 01:43:54;;;;;;;;;;;;;;;7.88;89.94;99560.41;5048198;28;19917;-56
2022/11/18 01:46:20;;;;;;;;;;;;;;;7.90;89.76;99565.53;5045340;28;19917;-57
2022/11/18 01:48:47;;;;;;;;;;;;;;;7.92;90.13;99563.50;5045956;28;19924;-56
2022/11/18 01:51:15;;;;;;;;;;;;;;;7.94;89.94;99567.59;5047570;28;20435;-56
2022/11/18 01:53:41;;;;;;;;;;;;;;;7.93;90.17;99565.97;5048087;28;19924;-57
2022/11/18 01:56:10;;;;;;;;;;;;;;;7.95;89.80;99565.78;5044842;28;19928;-56
2022/11/18 01:58:37;;;;;;;;;;;;;;;7.99;89.75;99567.88;5050695;28;19927;-56
2022/11/18 02:01:03;;;;;;;;;;;;;;;8.00;90.00;99564.22;5039303;28;19924;-57
2022/11/18 02:03:29;;;;;;;;;;;;;;;8.03;90.12;99573.59;5049008;28;19920;-56
2022/11/18 02:05:54;;;;;;;;;;;;;;;8.05;90.00;99574.22;5046820;28;20628;-56
2022/11/18 02:08:20;;;;;;;;;;;;;;;8.05;90.33;99577.69;5046998;28;19917;-54
2022/11/18 02:10:45;;;;;;;;;;;;;;;8.07;90.23;99583.63;5045215;28;20396;-56
2022/11/18 02:13:11;;;;;;;;;;;;;;;8.08;90.30;99579.16;5043553;28;19982;-57
2022/11/18 02:15:44;;;;;;;;;;;;;;;8.10;90.08;99579.00;5046271;28;19925;-57
2022/11/18 02:18:17;;;;;;;;;;;;;;;8.12;90.44;99585.72;5048865;28;19917;-56
2022/11/18 02:20:44;;;;;;;;;;;;;;;8.12;90.73;99588.38;5041414;28;20563;-57
2022/11/18 02:23:26;;;;;;;;;;;;;;;8.14;90.80;99589.00;5044090;28;19920;-56
2022/11/18 02:26:03;;;;;;;;;;;;;;;8.16;90.52;99594.09;5046444;28;19971;-56
2022/11/18 02:28:35;;;;;;;;;;;;;;;8.16;90.81;99594.94;5048217;28;19917;-56
2022/11/18 02:31:10;;;;;;;;;;;;;;;8.19;90.62;99599.03;5041970;28;19917;-57
2022/11/18 02:33:38;;;;;;;;;;;;;;;8.20;90.60;99601.47;5043442;28;19916;-56
2022/11/18 02:36:35;;;;;;;;;;;;;;;8.21;90.43;99600.47;5047286;28;19976;-56
2022/11/18 02:39:06;;;;;;;;;;;;;;;8.24;90.61;99608.03;5020137;28;19920;-57
2022/11/18 02:41:32;;;;;;;;;;;;;;;8.25;90.66;99598.28;5045298;28;20300;-57
2022/11/18 02:44:02;;;;;;;;;;;;;;;8.27;90.41;99601.56;5044830;28;19917;-56
2022/11/18 02:46:31;;;;;;;;;;;;;;;8.28;90.71;99609.31;5050162;28;19924;-57
2022/11/18 02:48:57;;;;;;;;;;;;;;;8.30;90.57;99606.47;5045924;28;20347;-57
2022/11/18 02:51:25;;;;;;;;;;;;;;;8.31;90.60;99613.41;5047605;28;20310;-56
2022/11/18 02:53:52;;;;;;;;;;;;;;;8.32;90.42;99617.69;5044274;28;20376;-56
2022/11/18 02:56:18;;;;;;;;;;;;;;;8.33;90.53;99614.03;5056165;28;20407;-54
2022/11/18 02:58:43;;;;;;;;;;;;;;;8.34;90.47;99616.53;5045223;28;19917;-57
2022/11/18 03:01:17;;;;;;;;;;;;;;;8.34;90.40;99613.88;5040125;28;19917;-56
2022/11/18 03:03:42;;;;;;;;;;;;;;;8.35;90.59;99620.81;5044194;28;19931;-55
2022/11/18 03:06:19;;;;;;;;;;;;;;;8.34;90.83;99621.81;5044693;28;19924;-57
2022/11/18 03:08:47;;;;;;;;;;;;;;;8.34;90.95;99624.44;5042217;28;20374;-56
2022/11/18 03:11:19;;;;;;;;;;;;;;;8.35;90.99;99628.75;5046211;28;19925;-57
2022/11/18 03:13:44;;;;;;;;;;;;;;;8.35;90.79;99626.09;5046551;28;19917;-56
2022/11/18 03:16:13;;;;;;;;;;;;;;;8.37;91.08;99628.56;5045004;28;19936;-56
2022/11/18 03:18:47;;;;;;;;;;;;;;;8.36;90.98;99640.97;5042276;28;20418;-56
2022/11/18 03:21:35;;;;;;;;;;;;;;;8.36;91.22;99635.66;5042972;28;19931;-55
2022/11/18 03:24:10;;;;;;;;;;;;;;;8.36;91.31;99637.50;5040154;28;19921;-55
2022/11/18 03:26:37;;;;;;;;;;;;;;;8.36;91.13;99638.31;5045416;28;20406;-57
2022/11/18 03:29:12;;;;;;;;;;;;;;;8.35;91.30;99636.66;5048714;28;19956;-57
2022/11/18 03:31:40;;;;;;;;;;;;;;;8.37;91.32;99639.13;5043212;28;19975;-57
2022/11/18 03:34:08;;;;;;;;;;;;;;;8.37;91.23;99647.88;5046707;28;19924;-57
2022/11/18 03:36:37;;;;;;;;;;;;;;;8.35;91.98;99649.91;5043310;28;19943;-56
2022/11/18 03:39:03;;;;;;;;;;;;;;;8.36;91.68;99656.81;5047773;28;20032;-58
2022/11/18 03:41:31;;;;;;;;;;;;;;;8.37;91.75;99660.28;5047818;28;20570;-56
2022/11/18 03:44:00;;;;;;;;;;;;;;;8.36;91.78;99656.00;5043995;28;20661;-56
2022/11/18 03:46:34;;;;;;;;;;;;;;;8.37;91.66;99665.59;5041984;28;19966;-57
2022/11/18 03:49:00;;;;;;;;;;;;;;;8.37;91.70;99673.53;5048065;28;19962;-58
2022/11/18 03:51:30;;;;;;;;;;;;;;;8.36;92.21;99675.34;5045845;28;19917;-57
2022/11/18 03:54:07;;;;;;;;;;;;;;;8.38;92.14;99680.44;5049443;28;19952;-56
2022/11/18 03:56:35;;;;;;;;;;;;;;;8.37;92.06;99679.63;5049960;28;19921;-57
2022/11/18 03:59:01;;;;;;;;;;;;;;;8.37;92.26;99687.56;5051837;28;20269;-56
2022/11/18 04:01:34;;;;;;;;;;;;;;;8.36;92.44;99688.56;5047636;28;19982;-56
2022/11/18 04:03:59;;;;;;;;;;;;;;;8.35;92.63;99689.56;5051653;28;19917;-56
2022/11/18 04:06:31;;;;;;;;;;;;;;;8.36;92.41;99696.50;5046815;28;20458;-57
2022/11/18 04:08:59;;;;;;;;;;;;;;;8.36;92.15;99688.56;5050911;28;20376;-55
2022/11/18 04:14:15;;;;;;;;;;;;;;;8.35;92.37;99700.16;5046701;28;19994;-56
2022/11/18 04:16:43;;;;;;;;;;;;;;;8.34;92.42;99703.00;5049399;28;19943;-56
2022/11/18 04:19:09;;;;;;;;;;;;;;;8.32;92.46;99705.78;5041689;28;20322;-56
2022/11/18 04:21:34;;;;;;;;;;;;;;;8.30;92.80;99712.25;5048792;28;19916;-56
2022/11/18 04:23:59;;;;;;;;;;;;;;;8.28;92.93;99711.63;5051473;28;20280;-55
2022/11/18 04:26:24;;;;;;;;;;;;;;;8.25;93.50;99720.75;5051157;28;19939;-56
2022/11/18 04:28:50;;;;;;;;;;;;;;;8.26;93.18;99717.09;5050191;28;19917;-56
2022/11/18 04:31:15;;;;;;;;;;;;;;;8.22;93.01;99715.00;5049442;28;20262;-56
2022/11/18 04:33:40;;;;;;;;;;;;;;;8.19;93.34;99715.38;5050878;28;19920;-56
2022/11/18 04:36:05;;;;;;;;;;;;;;;8.18;93.22;99719.84;5050994;28;20457;-56
2022/11/18 04:38:30;;;;;;;;;;;;;;;8.16;93.57;99719.22;5055201;28;19920;-56
2022/11/18 04:40:55;;;;;;;;;;;;;;;8.14;93.72;99729.16;5050412;28;19952;-56
2022/11/18 04:43:21;;;;;;;;;;;;;;;8.11;93.35;99728.69;5050532;28;19920;-57
2022/11/18 04:45:46;;;;;;;;;;;;;;;8.10;93.48;99730.53;5050403;28;19912;-54
2022/11/18 04:48:11;;;;;;;;;;;;;;;8.05;93.05;99732.88;5047374;28;19913;-57
2022/11/18 04:50:36;;;;;;;;;;;;;;;7.99;93.75;99739.72;5044639;28;19942;-55
2022/11/18 04:53:01;;;;;;;;;;;;;;;7.98;93.83;99746.00;5045551;28;19917;-55
2022/11/18 04:55:26;;;;;;;;;;;;;;;7.97;93.82;99748.81;5050655;28;19927;-56
2022/11/18 04:57:52;;;;;;;;;;;;;;;7.95;93.96;99748.19;5046822;28;19913;-55
2022/11/18 05:00:17;;;;;;;;;;;;;;;7.91;94.27;99750.38;5051530;28;19913;-56
2022/11/18 05:02:42;;;;;;;;;;;;;;;7.88;94.08;99756.03;5055742;28;20003;-56
2022/11/18 05:05:07;;;;;;;;;;;;;;;7.86;94.11;99760.66;5047524;28;20384;-56
2022/11/18 05:07:32;;;;;;;;;;;;;;;7.84;94.04;99757.38;5049744;28;19913;-55
2022/11/18 05:09:58;;;;;;;;;;;;;;;7.81;94.11;99759.56;5045283;28;19919;-56
2022/11/18 05:15:07;;;;;;;;;;;;;;;7.72;93.99;99772.84;5053656;28;19924;-54
2022/11/18 05:17:33;;;;;;;;;;;;;;;7.70;94.03;99768.72;5050064;28;19912;-56
2022/11/18 05:19:58;;;;;;;;;;;;;;;7.67;93.82;99764.63;5048591;28;19917;-56
2022/11/18 05:22:23;;;;;;;;;;;;;;;7.65;94.21;99771.91;5046291;28;19917;-56
2022/11/18 05:24:49;;;;;;;;;;;;;;;7.64;93.93;99777.38;5050607;28;19919;-56
2022/11/18 05:27:14;;;;;;;;;;;;;;;7.63;93.70;99781.84;5049635;28;19916;-57
2022/11/18 05:29:39;;;;;;;;;;;;;;;7.60;93.70;99779.56;5049912;28;20008;-55
2022/11/18 05:32:04;;;;;;;;;;;;;;;7.57;93.33;99787.00;5049319;28;19924;-56
2022/11/18 05:34:30;;;;;;;;;;;;;;;7.54;93.57;99785.56;5050399;28;19913;-56
2022/11/18 05:36:55;;;;;;;;;;;;;;;7.54;93.63;99790.00;5048446;28;19916;-55
2022/11/18 05:39:20;;;;;;;;;;;;;;;7.53;93.51;99797.13;5049376;28;19965;-55
2022/11/18 05:44:29;;;;;;;;;;;;;;;7.50;93.34;99794.78;5050028;28;19919;-57
2022/11/18 05:46:54;;;;;;;;;;;;;;;7.49;93.33;99797.63;5052496;28;20354;-55
2022/11/18 05:49:19;;;;;;;;;;;;;;;7.47;93.40;99800.44;5048788;28;19947;-54
2022/11/18 05:51:44;;;;;;;;;;;;;;;7.45;93.47;99807.72;5049655;28;20326;-54
2022/11/18 05:54:12;;;;;;;;;;;;;;;7.42;93.50;99808.88;5049288;28;19928;-56
2022/11/18 05:56:39;;;;;;;;;;;;;;;7.42;93.18;99813.34;5049472;28;20498;-57
2022/11/18 05:59:04;;;;;;;;;;;;;;;7.40;93.66;99820.63;5048780;28;19921;-56
2022/11/18 06:01:39;;;;;;;;;;;;;;;7.37;93.67;99813.88;5046601;28;20361;-55
2022/11/18 06:04:17;;;;;;;;;;;;;;;7.36;93.47;99814.88;5050460;28;19928;-55
2022/11/18 06:06:44;;;;;;;;;;;;;;;7.33;93.46;99814.41;5048431;28;20398;-56
2022/11/18 06:09:10;;;;;;;;;;;;;;;7.29;93.75;99815.75;5044791;28;19974;-56
2022/11/18 06:11:40;;;;;;;;;;;;;;;7.27;93.88;99830.97;5052530;28;19916;-55
2022/11/18 06:14:09;;;;;;;;;;;;;;;7.22;94.34;99828.81;5049105;28;19916;-56
2022/11/18 06:16:34;;;;;;;;;;;;;;;7.20;94.65;99837.91;5051224;28;20284;-53
2022/11/18 06:19:01;;;;;;;;;;;;;;;7.17;94.71;99840.91;5049218;28;19923;-54
2022/11/18 06:21:27;;;;;;;;;;;;;;;7.14;94.31;99847.34;5047809;28;19919;-55
2022/11/18 06:23:53;;;;;;;;;;;;;;;7.12;94.59;99847.53;5049862;28;19913;-54
2022/11/18 06:26:18;;;;;;;;;;;;;;;7.10;94.79;99857.44;5045046;28;19913;-53
2022/11/18 06:28:45;;;;;;;;;;;;;;;7.10;94.89;99860.06;5043234;28;19956;-56
2022/11/18 06:31:10;;;;;;;;;;;;;;;7.10;94.62;99859.25;5047267;28;19924;-57
2022/11/18 06:33:35;;;;;;;;;;;;;;;7.08;94.43;99864.69;5047934;28;19996;-55
2022/11/18 06:36:01;;;;;;;;;;;;;;;7.06;94.86;99869.34;5048499;28;19913;-56
2022/11/18 06:38:26;;;;;;;;;;;;;;;7.03;95.42;99864.41;5044789;28;19917;-56
2022/11/18 06:40:51;;;;;;;;;;;;;;;7.01;95.30;99869.03;5042422;28;19917;-56
2022/11/18 06:48:45;;;;;;;;;;;;;;;6.96;96.01;99881.94;5045681;28;20315;-57
2022/11/18 06:51:10;;;;;;;;;;;;;;;6.95;95.92;99885.56;5046485;28;19916;-56
2022/11/18 06:53:36;;;;;;;;;;;;;;;6.95;95.94;99890.00;5048508;28;19916;-57
2022/11/18 06:56:02;;;;;;;;;;;;;;;6.95;95.98;99898.75;5049089;28;19943;-56
2022/11/18 06:58:27;;;;;;;;;;;;;;;6.94;96.22;99898.91;5046535;28;19960;-55
2022/11/18 07:00:53;;;;;;;;;;;;;;;6.93;96.47;99900.72;5043958;28;19959;-55
2022/11/18 07:03:18;;;;;;;;;;;;;;;6.97;96.36;99909.16;5038463;28;20727;-55
2022/11/18 07:05:43;;;;;;;;;;;;;;;6.97;96.08;99922.34;5045181;28;19917;-56
2022/11/18 07:08:08;;;;;;;;;;;;;;;6.94;96.35;99915.59;5047289;28;20422;-56
2022/11/18 07:10:33;;;;;;;;;;;;;;;6.96;95.99;99932.06;5045132;28;19917;-54
2022/11/18 07:12:58;;;;;;;;;;;;;;;6.95;96.66;99919.88;5043844;28;20270;-52
2022/11/18 07:15:24;;;;;;;;;;;;;;;6.95;96.62;99932.25;5041260;28;19920;-54
2022/11/18 07:17:49;;;;;;;;;;;;;;;6.93;96.46;99935.03;5043960;28;19944;-57
2022/11/18 07:20:14;;;;;;;;;;;;;;;6.93;96.97;99935.03;5039485;28;19923;-57
2022/11/18 07:22:39;;;;;;;;;;;;;;;6.91;96.89;99931.72;5036436;28;19924;-55
2022/11/18 07:25:04;;;;;;;;;;;;;;;6.89;96.80;99936.38;5043394;28;19928;-54
2022/11/18 07:27:30;;;;;;;;;;;;;;;6.89;97.35;99940.81;5048860;28;20360;-55
2022/11/18 07:29:55;;;;;;;;;;;;;;;6.91;97.44;99941.47;5042615;28;19921;-56
2022/11/18 07:32:20;;;;;;;;;;;;;;;6.92;97.42;99948.38;5041708;28;19990;-56
2022/11/18 07:34:45;;;;;;;;;;;;;;;6.92;97.78;99957.13;5045261;28;19929;-56
2022/11/18 07:37:10;;;;;;;;;;;;;;;6.93;97.64;99960.59;5051566;28;19975;-54
2022/11/18 07:39:35;;;;;;;;;;;;;;;6.95;97.81;99958.63;5049262;28;19917;-57
2022/11/18 07:42:00;;;;;;;;;;;;;;;6.95;97.50;99962.09;5051075;28;19946;-55
2022/11/18 07:44:26;;;;;;;;;;;;;;;6.94;97.47;99965.72;5049656;28;19921;-55
2022/11/18 07:46:51;;;;;;;;;;;;;;;6.95;97.61;99966.56;5049497;28;19925;-56
2022/11/18 07:49:16;;;;;;;;;;;;;;;6.95;97.69;99969.19;5046397;28;19966;-56
2022/11/18 07:51:41;;;;;;;;;;;;;;;6.92;97.40;99970.34;5049173;28;19921;-56
2022/11/18 07:54:07;;;;;;;;;;;;;;;6.92;97.67;99972.97;5051415;28;19994;-55
2022/11/18 07:56:33;;;;;;;;;;;;;;;6.91;97.44;99978.41;5049442;28;19952;-56
2022/11/18 07:58:58;;;;;;;;;;;;;;;6.90;97.25;99980.22;5044883;28;19963;-55
2022/11/18 08:01:24;;;;;;;;;;;;;;;6.91;97.53;99987.16;5046594;28;19917;-56
2022/11/18 08:03:49;;;;;;;;;;;;;;;6.94;97.78;99986.84;5051579;28;19912;-55
2022/11/18 08:06:17;;;;;;;;;;;;;;;6.97;97.78;99990.97;5055363;28;21203;-54
2022/11/18 08:08:43;;;;;;;;;;;;;;;7.00;97.86;99982.72;5051580;28;20474;-55
2022/11/18 08:11:09;;;;;;;;;;;;;;;7.05;97.60;99999.69;5048722;28;20007;-56
2022/11/18 08:13:34;;;;;;;;;;;;;;;7.10;97.62;99999.16;5046947;28;19924;-55
2022/11/18 08:16:00;;;;;;;;;;;;;;;7.09;97.71;99997.53;5046251;28;19920;-56
2022/11/18 08:18:27;;;;;;;;;;;;;;;7.10;97.41;100010.56;5048771;28;20426;-54
2022/11/18 08:20:52;;;;;;;;;;;;;;;7.11;97.58;100011.38;5048569;28;20003;-56
2022/11/18 08:23:17;;;;;;;;;;;;;;;7.12;97.41;100011.22;5045267;28;20455;-55
2022/11/18 08:25:43;;;;;;;;;;;;;;;7.13;97.37;100009.41;5049516;28;19944;-55
2022/11/18 08:28:08;;;;;;;;;;;;;;;7.13;97.27;100012.03;5049639;28;19928;-52
2022/11/18 08:30:34;;;;;;;;;;;;;;;7.15;97.41;100017.97;5050844;28;19912;-55
2022/11/18 08:32:59;;;;;;;;;;;;;;;7.17;97.24;100020.44;5050702;28;20023;-55
2022/11/18 08:35:25;;;;;;;;;;;;;;;7.21;97.24;100032.31;5047676;28;20364;-56
2022/11/18 08:37:51;;;;;;;;;;;;;;;7.22;97.00;100023.38;5048363;28;19982;-56
2022/11/18 08:40:16;;;;;;;;;;;;;;;7.23;96.88;100027.69;5050096;28;20368;-54
2022/11/18 08:42:41;;;;;;;;;;;;;;;7.23;97.02;100023.25;5050020;28;20020;-54
2022/11/18 08:45:07;;;;;;;;;;;;;;;7.25;96.83;100033.66;5050611;28;20434;-53
2022/11/18 08:47:32;;;;;;;;;;;;;;;7.26;96.90;100033.47;5049850;28;19917;-55
2022/11/18 08:49:58;;;;;;;;;;;;;;;7.27;96.88;100031.66;5050047;28;19924;-56
2022/11/18 08:52:23;;;;;;;;;;;;;;;7.29;96.68;100029.66;5050347;28;19923;-55
2022/11/18 08:54:48;;;;;;;;;;;;;;;7.32;96.88;100024.88;5051075;28;19917;-55
2022/11/18 08:57:13;;;;;;;;;;;;;;;7.36;96.55;100030.63;5049671;28;19912;-56
2022/11/18 08:59:38;;;;;;;;;;;;;;;7.42;96.81;100035.22;5051606;28;19924;-55
2022/11/18 09:02:03;;;;;;;;;;;;;;;7.47;96.77;100040.81;5051000;28;19912;-56
2022/11/18 09:04:29;;;;;;;;;;;;;;;7.55;96.66;100040.81;5049562;28;19944;-55
2022/11/18 09:06:54;;;;;;;;;;;;;;;7.61;96.89;100040.13;5047707;28;19921;-55
2022/11/18 09:09:19;;;;;;;;;;;;;;;7.68;96.80;100042.91;5049329;28;19917;-56
2022/11/18 09:11:44;;;;;;;;;;;;;;;7.71;96.28;100048.66;5049967;28;19944;-56
2022/11/18 09:14:10;;;;;;;;;;;;;;;7.72;96.27;100047.66;5050416;28;20394;-56
2022/11/18 09:16:35;;;;;;;;;;;;;;;7.74;95.86;100058.88;5043115;28;19978;-55
2022/11/18 09:19:01;;;;;;;;;;;;;;;7.73;95.89;100054.59;5042216;28;19971;-56
2022/11/18 09:21:26;;;;;;;;;;;;;;;7.73;95.54;100067.81;5048474;28;20377;-54
2022/11/18 09:23:51;;;;;;;;;;;;;;;7.71;95.59;100064.53;5041054;28;19943;-55
2022/11/18 09:26:18;;;;;;;;;;;;;;;7.72;95.46;100071.47;5047082;28;19912;-56
2022/11/18 09:28:43;;;;;;;;;;;;;;;7.75;95.06;100075.56;5050364;28;20423;-55
2022/11/18 09:31:10;;;;;;;;;;;;;;;7.81;95.49;100085.50;5043309;28;19948;-56
2022/11/18 09:33:36;;;;;;;;;;;;;;;7.86;95.42;100074.41;5049120;28;20292;-54
2022/11/18 09:36:02;;;;;;;;;;;;;;;7.92;95.56;100079.81;5048985;28;20272;-53
2022/11/18 09:38:30;;;;;;;;;;;;;;;7.95;95.37;100089.22;5050462;28;20534;-56
2022/11/18 09:41:14;;;;;;;;;;;;;;;7.94;95.13;100084.94;5049510;28;19912;-56
2022/11/18 09:43:51;;;;;;;;;;;;;;;7.98;94.91;100099.44;5047969;28;19948;-57
2022/11/18 09:46:31;;;;;;;;;;;;;;;7.99;94.85;100091.34;5047666;28;19996;-57
2022/11/18 09:49:12;;;;;;;;;;;;;;;7.99;94.65;100106.38;5046114;28;19921;-56
2022/11/18 09:51:39;;;;;;;;;;;;;;;8.00;94.34;100105.38;5044237;28;19943;-57
2022/11/18 09:54:08;;;;;;;;;;;;;;;8.03;94.68;100110.31;5056841;28;19912;-56
2022/11/18 09:56:34;;;;;;;;;;;;;;;8.09;94.91;100106.97;5048621;28;19927;-57
2022/11/18 09:58:59;;;;;;;;;;;;;;;8.18;94.60;100119.19;5047645;28;19920;-56
2022/11/18 10:01:24;;;;;;;;;;;;;;;8.24;94.43;100125.59;5046262;28;20009;-56
2022/11/18 10:03:49;;;;;;;;;;;;;;;8.29;94.60;100136.50;5048476;28;19921;-55
2022/11/18 10:06:22;;;;;;;;;;;;;;;8.30;94.18;100120.44;5045913;28;20344;-56
2022/11/18 10:09:06;;;;;;;;;;;;;;;8.32;93.86;100129.03;5047687;28;19917;-56
2022/11/18 10:11:34;;;;;;;;;;;;;;;8.32;93.74;100134.31;5050652;28;19920;-57
2022/11/18 10:14:17;;;;;;;;;;;;;;;8.34;93.75;100126.25;5048279;28;19920;-57
2022/11/18 10:16:42;;;;;;;;;;;;;;;8.37;93.52;100132.00;5045767;28;20076;-56
2022/11/18 10:19:16;;;;;;;;;;;;;;;8.43;93.63;100134.97;5048724;28;20435;-58
2022/11/18 10:22:00;;;;;;;;;;;;;;;8.49;93.77;100132.47;5048480;28;19920;-56
2022/11/18 10:24:29;;;;;;;;;;;;;;;8.58;93.91;100139.34;5036011;28;19913;-56
2022/11/18 10:26:55;;;;;;;;;;;;;;;8.66;93.62;100138.44;5047180;28;19913;-57
2022/11/18 10:29:22;;;;;;;;;;;;;;;8.72;93.67;100136.97;5047724;28;19912;-56
2022/11/18 10:32:00;;;;;;;;;;;;;;;8.80;93.76;100143.00;5049611;28;19924;-57
2022/11/18 10:34:26;;;;;;;;;;;;;;;8.88;93.64;100150.06;5048058;28;19924;-56
2022/11/18 10:37:01;;;;;;;;;;;;;;;8.93;92.88;100147.69;5041287;28;19913;-56
2022/11/18 10:39:26;;;;;;;;;;;;;;;8.98;92.53;100162.09;5048291;28;20304;-57
2022/11/18 10:42:00;;;;;;;;;;;;;;;9.05;92.53;100156.06;5048473;28;19912;-55
2022/11/18 10:44:28;;;;;;;;;;;;;;;9.13;92.16;100154.19;5048918;28;20269;-56
2022/11/18 10:46:53;;;;;;;;;;;;;;;9.19;91.70;100158.75;5048998;28;19912;-55
2022/11/18 10:49:19;;;;;;;;;;;;;;;9.28;91.54;100160.34;5048384;28;20407;-55
2022/11/18 10:51:44;;;;;;;;;;;;;;;9.30;91.04;100161.00;5049118;28;19953;-54
2022/11/18 10:54:17;;;;;;;;;;;;;;;9.28;90.31;100159.53;5048946;28;20398;-56
2022/11/18 10:56:51;;;;;;;;;;;;;;;9.26;89.79;100165.00;5048408;28;19920;-54
2022/11/18 10:59:37;;;;;;;;;;;;;;;9.26;90.02;100164.19;5041241;28;19920;-57
2022/11/18 11:02:14;;;;;;;;;;;;;;;9.34;90.23;100165.94;5040398;28;19917;-55
2022/11/18 11:04:40;;;;;;;;;;;;;;;9.36;90.19;100164.75;5047765;28;20414;-56
2022/11/18 11:07:24;;;;;;;;;;;;;;;9.46;90.24;100175.09;5048805;28;19913;-56
2022/11/18 11:10:01;;;;;;;;;;;;;;;9.45;89.45;100171.63;5047030;28;20316;-56
2022/11/18 11:12:34;;;;;;;;;;;;;;;9.43;89.31;100181.56;5047481;28;19917;-56
2022/11/18 11:15:22;;;;;;;;;;;;;;;9.42;89.63;100179.09;5040917;28;19921;-55
2022/11/18 11:18:40;;;;;;;;;;;;;;;9.37;89.27;100177.00;5043205;28;19917;-56
2022/11/18 11:20:36;;;;;;;;;;;;;;;9.30;88.92;100184.84;5043540;28;19913;-55
2022/11/18 11:23:07;;;;;;;;;;;;;;;9.27;88.90;100181.72;5047963;28;19916;-56
2022/11/18 11:25:34;;;;;;;;;;;;;;;9.25;88.91;100183.72;5048832;28;19920;-55
2022/11/18 11:28:23;;;;;;;;;;;;;;;9.23;89.17;100183.88;5052507;28;19928;-55
2022/11/18 11:31:04;;;;;;;;;;;;;;;9.23;89.38;100185.72;5039297;28;19924;-57
2022/11/18 11:33:46;;;;;;;;;;;;;;;9.24;89.98;100184.72;5043393;28;19970;-56
2022/11/18 11:36:15;;;;;;;;;;;;;;;9.24;89.93;100195.31;5044022;28;19996;-55
2022/11/18 11:38:59;;;;;;;;;;;;;;;9.19;90.10;100195.84;5046827;28;19921;-55
2022/11/18 11:41:28;;;;;;;;;;;;;;;9.13;90.19;100193.91;5046683;28;19975;-55
2022/11/18 11:44:06;;;;;;;;;;;;;;;9.09;89.99;100189.16;5044857;28;19952;-57
2022/11/18 11:47:45;;;;;;;;;;;;;;;9.07;90.65;100196.44;5046806;28;20360;-55
2022/11/18 11:49:36;;;;;;;;;;;;;;;9.09;91.00;100199.75;5042017;28;19932;-56
2022/11/18 11:52:04;;;;;;;;;;;;;;;9.07;90.70;100199.09;5047219;28;20019;-57
2022/11/18 11:54:38;;;;;;;;;;;;;;;9.07;90.86;100199.91;5047405;28;19978;-55
2022/11/18 11:57:13;;;;;;;;;;;;;;;9.06;90.91;100194.81;5047718;28;19960;-56
2022/11/18 11:59:50;;;;;;;;;;;;;;;9.06;90.91;100200.09;5046504;28;20004;-56
2022/11/18 12:02:34;;;;;;;;;;;;;;;9.09;91.35;100200.56;5041520;28;19913;-56
2022/11/18 12:05:18;;;;;;;;;;;;;;;9.13;91.59;100195.72;5044966;28;20391;-55
2022/11/18 12:07:50;;;;;;;;;;;;;;;9.14;91.37;100200.03;5043768;28;19920;-57
2022/11/18 12:10:19;;;;;;;;;;;;;;;9.15;91.55;100191.91;5047471;28;19955;-56
2022/11/18 12:13:10;;;;;;;;;;;;;;;9.19;91.45;100195.03;5047156;28;19917;-56
2022/11/18 12:15:57;;;;;;;;;;;;;;;9.21;91.46;100196.50;5051260;28;19912;-57
2022/11/18 12:18:25;;;;;;;;;;;;;;;9.22;91.35;100197.31;5047587;28;19936;-55
2022/11/18 12:20:51;;;;;;;;;;;;;;;9.25;91.11;100196.94;5051368;28;19913;-55
2022/11/18 12:23:19;;;;;;;;;;;;;;;9.27;91.09;100195.81;5050605;28;19920;-53
2022/11/18 12:25:45;;;;;;;;;;;;;;;9.29;91.15;100190.31;5048543;28;19923;-56
2022/11/18 12:28:10;;;;;;;;;;;;;;;9.35;91.13;100192.25;5050343;28;19924;-55
2022/11/18 12:30:35;;;;;;;;;;;;;;;9.44;91.57;100195.66;5050841;28;19913;-57
2022/11/18 12:33:00;;;;;;;;;;;;;;;9.54;91.12;100193.56;5050598;28;19969;-57
2022/11/18 12:35:27;;;;;;;;;;;;;;;9.66;91.28;100194.78;5051431;28;20030;-56
2022/11/18 12:37:52;;;;;;;;;;;;;;;9.80;90.72;100198.47;5050579;28;19944;-56
2022/11/18 12:40:29;;;;;;;;;;;;;;;9.96;90.52;100200.94;5048788;28;19921;-55
2022/11/18 12:45:42;;;;;;;;;;;;;;;10.53;90.06;100200.31;5044764;28;19967;-57
2022/11/18 12:48:22;;;;;;;;;;;;;;;10.73;88.84;100206.69;5046951;28;19920;-57
2022/11/18 12:50:54;;;;;;;;;;;;;;;10.82;87.13;100208.22;5049657;28;20318;-54
2022/11/18 12:53:30;;;;;;;;;;;;;;;10.78;86.60;100211.44;5050855;28;19924;-57
2022/11/18 12:55:56;;;;;;;;;;;;;;;10.73;86.51;100214.66;5048865;28;19917;-56
2022/11/18 12:58:22;;;;;;;;;;;;;;;10.73;85.98;100211.19;5049876;28;20289;-57
2022/11/18 13:00:53;;;;;;;;;;;;;;;10.73;85.56;100216.50;5048117;28;19921;-56
2022/11/18 13:03:23;;;;;;;;;;;;;;;10.71;85.20;100216.69;5046377;28;19928;-57
2022/11/18 13:05:49;;;;;;;;;;;;;;;10.69;85.31;100223.97;5050692;28;19940;-56
2022/11/18 13:08:16;;;;;;;;;;;;;;;10.67;85.25;100219.88;5046237;28;19913;-58
2022/11/18 13:10:42;;;;;;;;;;;;;;;10.65;85.43;100217.41;5044770;28;19919;-56
2022/11/18 13:13:18;;;;;;;;;;;;;;;10.63;85.03;100224.72;5050446;28;19916;-56
2022/11/18 13:18:28;;;;;;;;;;;;;;;10.51;84.52;100231.53;5050137;28;19943;-57
2022/11/18 13:20:54;;;;;;;;;;;;;;;10.48;84.69;100238.03;5049336;28;20483;-56
2022/11/18 13:26:18;;;;;;;;;;;;;;;10.41;84.43;100236.31;5045403;28;20399;-56